Terminal Aerodrome Forecast
Issued by NWS

Home | Current Version | Previous Version | Text Only | Print | Product List | Glossary On
Versions: 1 2 3 4 5 6 7 8 9 10 11 12 13 14 15 16 17 18 19 20 21 22
686
FTUS43 KDTX 022326
TAFDET
TAF
KDET 022326Z 0300/0324 VRB04KT P6SM SCT030 BKN070
     FM030400 VRB03KT P6SM BKN120
     FM030800 VRB02KT 3SM BR SCT250
     FM031200 VRB03KT P6SM SKC
     FM031600 VRB05KT P6SM SCT050
     FM031900 VRB05KT P6SM BKN060=

USA.gov is the U.S. government's official web portal to all federal, state and local government web resources and services.